Xunlong5 — BYGW — position and weather

sailwx.info

Track history (hours):
 
Tides and Currents Weather Stations Pressure Air Temp Water Temp Dewpoint Dewpoint Depression Visibility Wind Speed Wind Dir Waves Ship Positions

Xunlong5

Last reported at 2015-May-23 09:34 UTC. Time now 2015-May-23 10:23 UTC.
Position N 22°20' E 114°05'.

Length 34 m; draft 1.4 m.

Type: High speed craft. MMSI: 413471870.

Date/timePositionNaut miles runAvg speedWind from/ knotsBaromVisibWave heightAir tempDewpointWater temp
2015-May-23 09:34N 22°20' E 114°05'1111.4
2015-May-23 08:33N 22°25' E 113°54'1615.9
2015-May-23 07:33N 22°17' E 114°09'1616.1
2015-May-23 06:33N 22°25' E 113°54'3 3.1
2015-May-23 05:25N 22°29' E 113°55'0 0.1
2015-May-23 04:33N 22°29' E 113°55'1817.6
2015-May-23 03:33N 22°17' E 114°09'1515.3
2015-May-23 02:33N 22°24' E 113°54'5 4.8
2015-May-23 01:32N 22°29' E 113°55'0 0.0
2015-May-23 00:32N 22°29' E 113°55'0 0.0
2015-May-22 23:32N 22°29' E 113°55'0 0.0
2015-May-22 22:32N 22°29' E 113°55'0 0.0
2015-May-22 21:32N 22°29' E 113°55'0 0.0
2015-May-22 20:32N 22°29' E 113°55'0 0.0
2015-May-22 19:32N 22°29' E 113°55'0 0.0
2015-May-22 18:26N 22°29' E 113°55'0 0.0
2015-May-22 17:32N 22°29' E 113°55'0 0.0
2015-May-22 16:32N 22°29' E 113°55'0 0.0
2015-May-22 15:32N 22°29' E 113°55'0 0.0
2015-May-22 14:32N 22°29' E 113°55'0 0.0
2015-May-22 13:32N 22°29' E 113°55'0 0.0
2015-May-22 12:32N 22°29' E 113°55'0 0.0
2015-May-22 11:32N 22°29' E 113°55'0 0.0
2015-May-22 10:32N 22°29' E 113°55'0 0.0
2015-May-22 09:32N 22°29' E 113°55'4 4.5
2015-May-22 08:33N 22°25' E 113°53'2222.0
2015-May-22 07:33N 22°10' E 113°35'1413.9
2015-May-22 06:33N 22°20' E 113°45'1211.9
2015-May-22 05:31N 22°29' E 113°55'0 0.1
2015-May-22 04:33N 22°29' E 113°55'1817.8
2015-May-22 03:33N 22°17' E 114°09'1414.3
2015-May-22 02:33N 22°22' E 113°55'6 6.3
2015-May-22 01:33N 22°29' E 113°55'0 0.0
2015-May-22 00:27N 22°29' E 113°55'0 0.0
2015-May-21 23:33N 22°29' E 113°55'0 0.0
2015-May-21 22:33N 22°29' E 113°55'0 0.0
2015-May-21 21:33N 22°29' E 113°55'0 0.0
2015-May-21 20:33N 22°29' E 113°55'0 0.0
2015-May-21 19:33N 22°29' E 113°55'0 0.0
2015-May-21 18:33N 22°29' E 113°55'0 0.0
2015-May-21 17:33N 22°29' E 113°55'0 0.0
2015-May-21 16:33N 22°29' E 113°55'0 0.0
2015-May-21 15:33N 22°29' E 113°55'0 0.0
2015-May-21 14:33N 22°29' E 113°55'0 0.0
2015-May-21 13:33N 22°29' E 113°55'0 0.0
2015-May-21 12:33N 22°29' E 113°55'0 0.0
2015-May-21 11:33N 22°29' E 113°55'0 0.0
2015-May-21 10:33N 22°29' E 113°55'0 0.0
2015-May-21 09:33N 22°29' E 113°55'1110.7
2015-May-21 08:32N 22°19' E 113°49'1616.3
2015-May-21 07:33N 22°10' E 113°35'1615.5
2015-May-21 06:33N 22°21' E 113°47'11 9.3
2015-May-21 05:24N 22°29' E 113°55'6 7.1
2015-May-21 04:32N 22°23' E 113°55'1414.7
2015-May-21 03:33N 22°17' E 114°09'1515.1
2015-May-21 02:33N 22°24' E 113°54'5 4.7
2015-May-21 01:29N 22°29' E 113°55'0 0.0
2015-May-21 00:29N 22°29' E 113°55'0 0.0
2015-May-20 23:29N 22°29' E 113°55'0 0.1
2015-May-20 22:29N 22°29' E 113°54'0 0.1
2015-May-20 21:29N 22°29' E 113°55'0 0.0
2015-May-20 20:29N 22°29' E 113°55'0 0.0
2015-May-20 19:29N 22°29' E 113°55'0 0.0
2015-May-20 18:29N 22°29' E 113°55'0 0.0
2015-May-20 17:29N 22°29' E 113°55'0 0.0
2015-May-20 16:29N 22°29' E 113°55'0 0.0
2015-May-20 15:29N 22°29' E 113°55'0 0.0
2015-May-20 14:29N 22°29' E 113°55'3 3.4
2015-May-20 13:33N 22°26' E 113°54'2422.8
2015-May-20 12:31N 22°10' E 113°35'2 0.7
2015-May-20 09:33N 22°12' E 113°34'7 2.7
2015-May-20 07:03N 22°16' E 113°39'7 8.8
2015-May-20 06:18N 22°12' E 113°34'2 0.7
2015-May-20 03:33N 22°10' E 113°35'5 1.8
2015-May-20 00:33N 22°14' E 113°39'5 3.7
2015-May-19 23:07N 22°10' E 113°35'0 0.0
2015-May-19 20:13N 22°10' E 113°35'0 0.0
2015-May-19 19:25N 22°10' E 113°35'0 0.0
2015-May-19 18:25N 22°10' E 113°35'0 0.0
2015-May-19 16:07N 22°10' E 113°35'0 0.0
2015-May-19 15:25N 22°10' E 113°35'0 0.0
2015-May-19 12:26N 22°10' E 113°35'2 0.8
2015-May-19 09:33N 22°12' E 113°34'6 2.5
2015-May-19 07:04N 22°16' E 113°39'6 9.2
2015-May-19 06:23N 22°12' E 113°34'2 0.7
2015-May-19 03:33N 22°10' E 113°35'5 1.8
2015-May-19 00:33N 22°14' E 113°39'6 4.4
2015-May-18 23:14N 22°10' E 113°35'0 0.0
2015-May-18 21:26N 22°10' E 113°35'0 0.0
2015-May-18 17:14N 22°10' E 113°35'0 0.0
2015-May-18 16:32N 22°10' E 113°35'0 0.0
2015-May-18 14:20N 22°10' E 113°35'0 0.0
2015-May-18 13:14N 22°10' E 113°35'0 0.0
2015-May-18 12:23N 22°10' E 113°35'2 0.8
2015-May-18 09:34N 22°12' E 113°34'11 5.0
2015-May-18 07:15N 22°21' E 113°42'1116.4
2015-May-18 06:33N 22°12' E 113°34'2 0.7
2015-May-18 03:33N 22°10' E 113°35'1916.8
2015-May-18 02:26N 22°27' E 113°44'15 7.9
2015-May-18 00:33N 22°13' E 113°39'4 1.9
2015-May-17 22:09N 22°10' E 113°35'0 0.0
2015-May-17 21:28N 22°10' E 113°35'0 0.0
2015-May-17 20:10N 22°10' E 113°35'0 0.0
2015-May-17 19:28N 22°10' E 113°35'0 0.0
2015-May-17 18:34N 22°10' E 113°35'0 0.0
2015-May-17 17:21N 22°10' E 113°35'0 0.0
2015-May-17 16:28N 22°10' E 113°35'0 0.0
2015-May-17 15:28N 22°10' E 113°35'0 0.0
2015-May-17 14:34N 22°10' E 113°35'0 0.0
2015-May-17 13:34N 22°10' E 113°35'0 0.0
2015-May-17 12:33N 22°10' E 113°35'7 2.9
2015-May-17 10:08N 22°16' E 113°39'610.4
2015-May-17 09:33N 22°12' E 113°34'6 2.4
2015-May-17 07:03N 22°15' E 113°39'611.3
2015-May-17 06:32N 22°12' E 113°34'2319.4
2015-May-17 05:21N 22°31' E 113°46'2413.3
2015-May-17 03:33N 22°10' E 113°35'3 1.1
2015-May-17 00:30N 22°11' E 113°38'3 3.6
2015-May-16 23:32N 22°10' E 113°35'0 0.0
2015-May-16 22:32N 22°10' E 113°35'0 0.0
2015-May-16 21:33N 22°10' E 113°35'0 0.0
2015-May-16 20:33N 22°10' E 113°35'0 0.0
2015-May-16 19:33N 22°10' E 113°35'0 0.0
2015-May-16 18:33N 22°10' E 113°35'0 0.0
2015-May-16 17:33N 22°10' E 113°35'0 0.0
2015-May-16 16:33N 22°10' E 113°35'0 0.0
2015-May-16 15:33N 22°10' E 113°35'0 0.0
2015-May-16 14:33N 22°10' E 113°35'0 0.0
2015-May-16 13:33N 22°10' E 113°35'0 0.0
2015-May-16 12:32N 22°10' E 113°35'10 4.0
2015-May-16 10:05N 22°18' E 113°40'916.7
2015-May-16 09:33N 22°12' E 113°34'1818.1
2015-May-16 08:33N 22°27' E 113°44'12 8.2
2015-May-16 07:05N 22°16' E 113°39'6 8.7
2015-May-16 06:21N 22°12' E 113°34'8 3.6
2015-May-16 04:03N 22°18' E 113°40'918.4
2015-May-16 03:33N 22°10' E 113°35'4 1.4
2015-May-16 00:31N 22°12' E 113°39'4 4.0
2015-May-15 23:24N 22°10' E 113°35'0 0.0
2015-May-15 22:11N 22°10' E 113°35'0 0.0
2015-May-15 21:33N 22°10' E 113°35'0 0.0
2015-May-15 20:33N 22°10' E 113°35'0 0.0
2015-May-15 19:29N 22°10' E 113°35'0 0.0
2015-May-15 18:33N 22°10' E 113°35'0 0.0
2015-May-15 17:32N 22°10' E 113°35'0 0.0
2015-May-15 16:32N 22°10' E 113°35'0 0.0
2015-May-15 15:33N 22°10' E 113°35'0 0.0
2015-May-15 14:32N 22°10' E 113°35'0 0.0
2015-May-15 13:32N 22°10' E 113°35'0 0.0
2015-May-15 12:33N 22°10' E 113°35'8 3.2
2015-May-15 10:09N 22°17' E 113°39'710.8
2015-May-15 09:30N 22°12' E 113°34'6 2.6
2015-May-15 07:05N 22°16' E 113°39'6 9.2
2015-May-15 06:24N 22°12' E 113°34'2 0.8
2015-May-15 03:33N 22°10' E 113°35'5 1.6
2015-May-15 00:33N 22°13' E 113°39'5 3.7
2015-May-14 23:16N 22°10' E 113°35'0 0.0
2015-May-14 22:16N 22°10' E 113°35'0 0.0
2015-May-14 21:04N 22°10' E 113°35'0 0.0
2015-May-14 20:28N 22°10' E 113°35'0 0.0
2015-May-14 19:22N 22°10' E 113°35'0 0.0
2015-May-14 18:16N 22°10' E 113°35'0 0.0
2015-May-14 16:28N 22°10' E 113°35'0 0.0
2015-May-14 15:28N 22°10' E 113°35'0 0.0
2015-May-14 13:28N 22°10' E 113°35'0 0.0
2015-May-14 12:31N 22°10' E 113°35'9 3.6
2015-May-14 10:05N 22°18' E 113°39'812.2
2015-May-14 09:26N 22°12' E 113°34'0 0.0
2015-May-14 06:19N 22°12' E 113°34'2 0.8
2015-May-14 03:32N 22°10' E 113°35'6 2.0
2015-May-14 00:33N 22°14' E 113°39'6 5.9
2015-May-13 23:32N 22°10' E 113°35'0 0.0
2015-May-13 22:32N 22°10' E 113°35'0 0.0
2015-May-13 21:20N 22°10' E 113°35'0 0.0
2015-May-13 19:32N 22°10' E 113°35'0 0.0
2015-May-13 18:26N 22°10' E 113°35'0 0.0
2015-May-13 17:20N 22°10' E 113°35'0 0.0
2015-May-13 15:14N 22°10' E 113°35'0 0.0
2015-May-13 14:26N 22°10' E 113°35'0 0.0
2015-May-13 13:26N 22°10' E 113°35'0 0.0
2015-May-13 12:33N 22°10' E 113°35'  
Track history (hours):
 
Tides and Currents Weather Stations Pressure Air Temp Water Temp Dewpoint Dewpoint Depression Visibility Wind Speed Wind Dir Waves Ship Positions

Xunlong5

Last reported at 2015-May-23 09:34 UTC. Time now 2015-May-23 10:23 UTC.
Position N 22°20' E 114°05'.

Length 34 m; draft 1.4 m.

Type: High speed craft. MMSI: 413471870.

Date/timePositionNaut miles runAvg speedWind from/ knotsBaromVisibWave heightAir tempDewpointWater temp
2015-May-23 09:34N 22°20' E 114°05'1111.4
2015-May-23 08:33N 22°25' E 113°54'1615.9
2015-May-23 07:33N 22°17' E 114°09'1616.1
2015-May-23 06:33N 22°25' E 113°54'3 3.1
2015-May-23 05:25N 22°29' E 113°55'0 0.1
2015-May-23 04:33N 22°29' E 113°55'1817.6
2015-May-23 03:33N 22°17' E 114°09'1515.3
2015-May-23 02:33N 22°24' E 113°54'5 4.8
2015-May-23 01:32N 22°29' E 113°55'0 0.0
2015-May-23 00:32N 22°29' E 113°55'0 0.0
2015-May-22 23:32N 22°29' E 113°55'0 0.0
2015-May-22 22:32N 22°29' E 113°55'0 0.0
2015-May-22 21:32N 22°29' E 113°55'0 0.0
2015-May-22 20:32N 22°29' E 113°55'0 0.0
2015-May-22 19:32N 22°29' E 113°55'0 0.0
2015-May-22 18:26N 22°29' E 113°55'0 0.0
2015-May-22 17:32N 22°29' E 113°55'0 0.0
2015-May-22 16:32N 22°29' E 113°55'0 0.0
2015-May-22 15:32N 22°29' E 113°55'0 0.0
2015-May-22 14:32N 22°29' E 113°55'0 0.0
2015-May-22 13:32N 22°29' E 113°55'0 0.0
2015-May-22 12:32N 22°29' E 113°55'0 0.0
2015-May-22 11:32N 22°29' E 113°55'0 0.0
2015-May-22 10:32N 22°29' E 113°55'0 0.0
2015-May-22 09:32N 22°29' E 113°55'4 4.5
2015-May-22 08:33N 22°25' E 113°53'2222.0
2015-May-22 07:33N 22°10' E 113°35'1413.9
2015-May-22 06:33N 22°20' E 113°45'1211.9
2015-May-22 05:31N 22°29' E 113°55'0 0.1
2015-May-22 04:33N 22°29' E 113°55'1817.8
2015-May-22 03:33N 22°17' E 114°09'1414.3
2015-May-22 02:33N 22°22' E 113°55'6 6.3
2015-May-22 01:33N 22°29' E 113°55'0 0.0
2015-May-22 00:27N 22°29' E 113°55'0 0.0
2015-May-21 23:33N 22°29' E 113°55'0 0.0
2015-May-21 22:33N 22°29' E 113°55'0 0.0
2015-May-21 21:33N 22°29' E 113°55'0 0.0
2015-May-21 20:33N 22°29' E 113°55'0 0.0
2015-May-21 19:33N 22°29' E 113°55'0 0.0
2015-May-21 18:33N 22°29' E 113°55'0 0.0
2015-May-21 17:33N 22°29' E 113°55'0 0.0
2015-May-21 16:33N 22°29' E 113°55'0 0.0
2015-May-21 15:33N 22°29' E 113°55'0 0.0
2015-May-21 14:33N 22°29' E 113°55'0 0.0
2015-May-21 13:33N 22°29' E 113°55'0 0.0
2015-May-21 12:33N 22°29' E 113°55'0 0.0
2015-May-21 11:33N 22°29' E 113°55'0 0.0
2015-May-21 10:33N 22°29' E 113°55'0 0.0
2015-May-21 09:33N 22°29' E 113°55'1110.7
2015-May-21 08:32N 22°19' E 113°49'1616.3
2015-May-21 07:33N 22°10' E 113°35'1615.5
2015-May-21 06:33N 22°21' E 113°47'11 9.3
2015-May-21 05:24N 22°29' E 113°55'6 7.1
2015-May-21 04:32N 22°23' E 113°55'1414.7
2015-May-21 03:33N 22°17' E 114°09'1515.1
2015-May-21 02:33N 22°24' E 113°54'5 4.7
2015-May-21 01:29N 22°29' E 113°55'0 0.0
2015-May-21 00:29N 22°29' E 113°55'0 0.0
2015-May-20 23:29N 22°29' E 113°55'0 0.1
2015-May-20 22:29N 22°29' E 113°54'0 0.1
2015-May-20 21:29N 22°29' E 113°55'0 0.0
2015-May-20 20:29N 22°29' E 113°55'0 0.0
2015-May-20 19:29N 22°29' E 113°55'0 0.0
2015-May-20 18:29N 22°29' E 113°55'0 0.0
2015-May-20 17:29N 22°29' E 113°55'0 0.0
2015-May-20 16:29N 22°29' E 113°55'0 0.0
2015-May-20 15:29N 22°29' E 113°55'0 0.0
2015-May-20 14:29N 22°29' E 113°55'3 3.4
2015-May-20 13:33N 22°26' E 113°54'2422.8
2015-May-20 12:31N 22°10' E 113°35'2 0.7
2015-May-20 09:33N 22°12' E 113°34'7 2.7
2015-May-20 07:03N 22°16' E 113°39'7 8.8
2015-May-20 06:18N 22°12' E 113°34'2 0.7
2015-May-20 03:33N 22°10' E 113°35'5 1.8
2015-May-20 00:33N 22°14' E 113°39'5 3.7
2015-May-19 23:07N 22°10' E 113°35'0 0.0
2015-May-19 20:13N 22°10' E 113°35'0 0.0
2015-May-19 19:25N 22°10' E 113°35'0 0.0
2015-May-19 18:25N 22°10' E 113°35'0 0.0
2015-May-19 16:07N 22°10' E 113°35'0 0.0
2015-May-19 15:25N 22°10' E 113°35'0 0.0
2015-May-19 12:26N 22°10' E 113°35'2 0.8
2015-May-19 09:33N 22°12' E 113°34'6 2.5
2015-May-19 07:04N 22°16' E 113°39'6 9.2
2015-May-19 06:23N 22°12' E 113°34'2 0.7
2015-May-19 03:33N 22°10' E 113°35'5 1.8
2015-May-19 00:33N 22°14' E 113°39'6 4.4
2015-May-18 23:14N 22°10' E 113°35'0 0.0
2015-May-18 21:26N 22°10' E 113°35'0 0.0
2015-May-18 17:14N 22°10' E 113°35'0 0.0
2015-May-18 16:32N 22°10' E 113°35'0 0.0
2015-May-18 14:20N 22°10' E 113°35'0 0.0
2015-May-18 13:14N 22°10' E 113°35'0 0.0
2015-May-18 12:23N 22°10' E 113°35'2 0.8
2015-May-18 09:34N 22°12' E 113°34'11 5.0
2015-May-18 07:15N 22°21' E 113°42'1116.4
2015-May-18 06:33N 22°12' E 113°34'2 0.7
2015-May-18 03:33N 22°10' E 113°35'1916.8
2015-May-18 02:26N 22°27' E 113°44'15 7.9
2015-May-18 00:33N 22°13' E 113°39'4 1.9
2015-May-17 22:09N 22°10' E 113°35'0 0.0
2015-May-17 21:28N 22°10' E 113°35'0 0.0
2015-May-17 20:10N 22°10' E 113°35'0 0.0
2015-May-17 19:28N 22°10' E 113°35'0 0.0
2015-May-17 18:34N 22°10' E 113°35'0 0.0
2015-May-17 17:21N 22°10' E 113°35'0 0.0
2015-May-17 16:28N 22°10' E 113°35'0 0.0
2015-May-17 15:28N 22°10' E 113°35'0 0.0
2015-May-17 14:34N 22°10' E 113°35'0 0.0
2015-May-17 13:34N 22°10' E 113°35'0 0.0
2015-May-17 12:33N 22°10' E 113°35'7 2.9
2015-May-17 10:08N 22°16' E 113°39'610.4
2015-May-17 09:33N 22°12' E 113°34'6 2.4
2015-May-17 07:03N 22°15' E 113°39'611.3
2015-May-17 06:32N 22°12' E 113°34'2319.4
2015-May-17 05:21N 22°31' E 113°46'2413.3
2015-May-17 03:33N 22°10' E 113°35'3 1.1
2015-May-17 00:30N 22°11' E 113°38'3 3.6
2015-May-16 23:32N 22°10' E 113°35'0 0.0
2015-May-16 22:32N 22°10' E 113°35'0 0.0
2015-May-16 21:33N 22°10' E 113°35'0 0.0
2015-May-16 20:33N 22°10' E 113°35'0 0.0
2015-May-16 19:33N 22°10' E 113°35'0 0.0
2015-May-16 18:33N 22°10' E 113°35'0 0.0
2015-May-16 17:33N 22°10' E 113°35'0 0.0
2015-May-16 16:33N 22°10' E 113°35'0 0.0
2015-May-16 15:33N 22°10' E 113°35'0 0.0
2015-May-16 14:33N 22°10' E 113°35'0 0.0
2015-May-16 13:33N 22°10' E 113°35'0 0.0
2015-May-16 12:32N 22°10' E 113°35'10 4.0
2015-May-16 10:05N 22°18' E 113°40'916.7
2015-May-16 09:33N 22°12' E 113°34'1818.1
2015-May-16 08:33N 22°27' E 113°44'12 8.2
2015-May-16 07:05N 22°16' E 113°39'6 8.7
2015-May-16 06:21N 22°12' E 113°34'8 3.6
2015-May-16 04:03N 22°18' E 113°40'918.4
2015-May-16 03:33N 22°10' E 113°35'4 1.4
2015-May-16 00:31N 22°12' E 113°39'4 4.0
2015-May-15 23:24N 22°10' E 113°35'0 0.0
2015-May-15 22:11N 22°10' E 113°35'0 0.0
2015-May-15 21:33N 22°10' E 113°35'0 0.0
2015-May-15 20:33N 22°10' E 113°35'0 0.0
2015-May-15 19:29N 22°10' E 113°35'0 0.0
2015-May-15 18:33N 22°10' E 113°35'0 0.0
2015-May-15 17:32N 22°10' E 113°35'0 0.0
2015-May-15 16:32N 22°10' E 113°35'0 0.0
2015-May-15 15:33N 22°10' E 113°35'0 0.0
2015-May-15 14:32N 22°10' E 113°35'0 0.0
2015-May-15 13:32N 22°10' E 113°35'0 0.0
2015-May-15 12:33N 22°10' E 113°35'8 3.2
2015-May-15 10:09N 22°17' E 113°39'710.8
2015-May-15 09:30N 22°12' E 113°34'6 2.6
2015-May-15 07:05N 22°16' E 113°39'6 9.2
2015-May-15 06:24N 22°12' E 113°34'2 0.8
2015-May-15 03:33N 22°10' E 113°35'5 1.6
2015-May-15 00:33N 22°13' E 113°39'5 3.7
2015-May-14 23:16N 22°10' E 113°35'0 0.0
2015-May-14 22:16N 22°10' E 113°35'0 0.0
2015-May-14 21:04N 22°10' E 113°35'0 0.0
2015-May-14 20:28N 22°10' E 113°35'0 0.0
2015-May-14 19:22N 22°10' E 113°35'0 0.0
2015-May-14 18:16N 22°10' E 113°35'0 0.0
2015-May-14 16:28N 22°10' E 113°35'0 0.0
2015-May-14 15:28N 22°10' E 113°35'0 0.0
2015-May-14 13:28N 22°10' E 113°35'0 0.0
2015-May-14 12:31N 22°10' E 113°35'9 3.6
2015-May-14 10:05N 22°18' E 113°39'812.2
2015-May-14 09:26N 22°12' E 113°34'0 0.0
2015-May-14 06:19N 22°12' E 113°34'2 0.8
2015-May-14 03:32N 22°10' E 113°35'6 2.0
2015-May-14 00:33N 22°14' E 113°39'6 5.9
2015-May-13 23:32N 22°10' E 113°35'0 0.0
2015-May-13 22:32N 22°10' E 113°35'0 0.0
2015-May-13 21:20N 22°10' E 113°35'0 0.0
2015-May-13 19:32N 22°10' E 113°35'0 0.0
2015-May-13 18:26N 22°10' E 113°35'0 0.0
2015-May-13 17:20N 22°10' E 113°35'0 0.0
2015-May-13 15:14N 22°10' E 113°35'0 0.0
2015-May-13 14:26N 22°10' E 113°35'0 0.0
2015-May-13 13:26N 22°10' E 113°35'0 0.0
2015-May-13 12:33N 22°10' E 113°35'  

Dump ship's entire track history